Fdl, Wisconsin
Current Conditions -  °F | °C
As of 11:53 AM on Thursday 23 Oct 2014 (Local Time) from KFLD Reporting Station
Scattered Clouds Scattered Clouds  
Wind Chill: 11°   Ceiling: Unl
Heat Index: 11°   Visibility: 10mi
Dew Point:   Wind: 12mph
Humidity: 61%   Direction: 190°S
Pressure: 30.11"   Gusts: NA
Location:  43.7436°N, 88.3886°W
Report Text: KFLD 231653Z AUTO 19010KT 10SM SCT085 11/04 A3011 RMK AO2 SLP202 T01110039
Loading
Personal Weather Stations






























Interactive Weather Map
Tropical Storm Tracking
New forecast layout! Learn more

10-Day Weather Forecast

Advertisements
Track Severe Weather on mobile